createdAt,value
2019-06-07T00:01:49.265Z,10.48
2019-06-07T00:04:21.294Z,15.43
2019-06-07T00:06:50.011Z,12.65
2019-06-07T00:09:22.520Z,10.38
2019-06-07T00:11:50.567Z,9.63
2019-06-07T00:14:21.170Z,14.53
2019-06-07T00:16:52.000Z,14.05
2019-06-07T00:19:21.861Z,15.72
2019-06-07T00:22:16.527Z,13.03
2019-06-07T00:24:22.880Z,10.93
2019-06-07T00:26:58.969Z,12.25
2019-06-07T00:29:23.441Z,11.60
2019-06-07T00:31:52.989Z,10.37
2019-06-07T00:34:23.208Z,15.63
2019-06-07T00:36:53.545Z,13.03
2019-06-07T00:39:25.881Z,10.40
2019-06-07T00:41:54.065Z,14.90
2019-06-07T00:44:23.743Z,10.95
2019-06-07T00:46:54.077Z,9.53
2019-06-07T00:49:40.039Z,14.90
2019-06-07T00:51:54.631Z,13.33
2019-06-07T00:54:25.083Z,13.13
2019-06-07T00:56:54.729Z,17.25
2019-06-07T00:59:29.604Z,15.00
2019-06-07T01:01:56.522Z,13.28
2019-06-07T01:04:27.201Z,17.60
2019-06-07T01:06:56.669Z,12.93
2019-06-07T01:09:27.043Z,14.37
2019-06-07T01:11:56.418Z,13.06
2019-06-07T01:14:28.510Z,16.82
2019-06-07T01:17:22.208Z,14.55
2019-06-07T01:19:29.431Z,12.98
2019-06-07T01:21:58.979Z,14.10
2019-06-07T01:24:28.358Z,17.77
2019-06-07T01:26:57.775Z,14.87
2019-06-07T01:29:30.899Z,10.13
2019-06-07T01:31:59.315Z,11.37
2019-06-07T01:34:29.084Z,10.13
2019-06-07T01:36:59.563Z,16.87
2019-06-07T01:39:31.486Z,10.75
2019-06-07T01:42:00.188Z,9.28
2019-06-07T01:44:31.017Z,11.18
2019-06-07T01:47:01.984Z,17.02
2019-06-07T01:49:31.450Z,10.60
2019-06-07T01:52:00.913Z,11.43
2019-06-07T01:57:01.396Z,15.53
2019-06-07T01:59:31.834Z,15.38
2019-06-07T02:02:01.925Z,16.20
2019-06-07T02:04:33.161Z,11.67
2019-06-07T02:07:02.603Z,12.40
2019-06-07T02:09:32.378Z,14.05
2019-06-07T02:12:01.903Z,11.10
2019-06-07T02:14:33.373Z,15.50
2019-06-07T02:17:03.115Z,17.02
2019-06-07T02:19:33.390Z,17.55
2019-06-07T02:22:03.209Z,15.32
2019-06-07T02:24:35.791Z,16.23
2019-06-07T02:27:04.067Z,16.53
2019-06-07T02:29:33.861Z,19.77
2019-06-07T02:32:03.670Z,28.47
2019-06-07T02:34:38.638Z,18.30
2019-06-07T02:37:05.314Z,22.87
2019-06-07T02:39:40.494Z,25.57
2019-06-07T02:42:06.561Z,25.35
2019-06-07T02:44:39.440Z,27.13
2019-06-07T02:47:07.118Z,17.30
2019-06-07T02:49:41.179Z,20.93
2019-06-07T02:52:07.751Z,25.27
2019-06-07T02:54:40.362Z,20.55
2019-06-07T02:57:08.372Z,15.73
2019-06-07T03:00:03.728Z,18.67
2019-06-07T03:02:09.177Z,22.93
2019-06-07T03:04:42.357Z,23.43
2019-06-07T03:07:12.477Z,26.47
2019-06-07T03:09:42.924Z,26.40
2019-06-07T03:12:13.641Z,20.17
2019-06-07T03:14:44.492Z,21.37
2019-06-07T03:17:37.560Z,19.95
2019-06-07T03:20:08.173Z,17.50
2019-06-07T03:22:41.604Z,15.10
2019-06-07T03:25:12.574Z,16.07
2019-06-07T03:27:49.578Z,15.90
2019-06-07T03:32:48.037Z,13.93
2019-06-07T03:35:16.480Z,18.77
2019-06-07T03:37:45.900Z,17.07
2019-06-07T03:40:16.307Z,11.93
2019-06-07T03:42:45.706Z,15.38
2019-06-07T03:45:15.240Z,11.30
2019-06-07T03:47:44.620Z,9.90
2019-06-07T03:50:14.185Z,13.70
2019-06-07T03:52:43.577Z,16.35
2019-06-07T03:55:13.101Z,19.05
2019-06-07T04:00:14.009Z,17.63
2019-06-07T04:02:43.422Z,16.42
2019-06-07T04:05:13.139Z,14.13
2019-06-07T04:07:44.334Z,24.45
2019-06-07T04:10:13.615Z,10.83
2019-06-07T04:12:44.196Z,17.82
2019-06-07T04:18:00.867Z,14.43
2019-06-07T04:20:14.890Z,12.80
2019-06-07T04:22:44.307Z,11.80
2019-06-07T04:25:14.126Z,16.42
2019-06-07T04:27:43.524Z,18.73
2019-06-07T04:30:13.700Z,13.00
2019-06-07T04:32:44.983Z,13.62
2019-06-07T04:35:15.700Z,11.27
2019-06-07T04:37:45.393Z,13.70
2019-06-07T04:40:14.876Z,12.17
2019-06-07T04:42:45.929Z,12.25
2019-06-07T04:45:33.146Z,15.85
2019-06-07T04:47:48.258Z,18.57
2019-06-07T04:50:18.440Z,17.48
2019-06-07T04:52:47.910Z,15.03
2019-06-07T04:55:17.289Z,20.27
2019-06-07T04:57:46.668Z,12.80
2019-06-07T05:00:49.682Z,17.42
2019-06-07T05:02:50.202Z,13.66
2019-06-07T05:05:19.588Z,12.85
2019-06-07T05:07:48.969Z,14.40
2019-06-07T05:10:18.363Z,16.87
2019-06-07T05:12:47.745Z,19.77
2019-06-07T05:15:17.216Z,18.52
2019-06-07T05:17:46.971Z,13.43
2019-06-07T05:20:17.337Z,14.96
2019-06-07T05:22:47.749Z,15.80
2019-06-07T05:25:17.918Z,17.12
2019-06-07T05:27:47.962Z,20.48
2019-06-07T05:33:04.121Z,11.25
2019-06-07T05:35:35.451Z,14.13
2019-06-07T05:38:05.677Z,12.63
2019-06-07T05:40:42.916Z,14.73
2019-06-07T05:43:24.791Z,12.15
2019-06-07T05:45:54.208Z,13.88
2019-06-07T05:48:24.073Z,20.43
2019-06-07T05:50:57.842Z,11.80
2019-06-07T05:53:25.396Z,15.32
2019-06-07T05:55:56.705Z,12.43
2019-06-07T05:58:26.097Z,10.93
2019-06-07T06:00:55.490Z,12.18
2019-06-07T06:03:24.878Z,9.53
2019-06-07T06:05:55.655Z,15.37
2019-06-07T06:08:25.540Z,9.20
2019-06-07T06:10:55.854Z,9.45
2019-06-07T06:13:25.239Z,14.13
2019-06-07T06:16:01.701Z,11.90
2019-06-07T06:18:25.797Z,13.70
2019-06-07T06:21:15.461Z,13.20
2019-06-07T06:23:26.342Z,10.43
2019-06-07T06:25:57.331Z,10.88
2019-06-07T06:28:27.323Z,11.30
2019-06-07T06:30:56.793Z,9.80
2019-06-07T06:33:33.415Z,10.93
2019-06-07T06:35:57.413Z,9.07
2019-06-07T06:38:26.815Z,9.80
2019-06-07T06:41:14.767Z,11.08
2019-06-07T06:43:27.435Z,9.65
2019-06-07T06:45:56.892Z,12.43
2019-06-07T06:48:26.296Z,11.57
2019-06-07T06:50:56.229Z,12.80
2019-06-07T06:53:26.551Z,9.08
2019-06-07T06:55:56.709Z,13.58
2019-06-07T06:58:27.075Z,12.63
2019-06-07T07:01:06.391Z,11.70
2019-06-07T07:03:56.493Z,11.37
2019-06-07T07:06:23.265Z,7.58
2019-06-07T07:08:30.816Z,9.73
2019-06-07T07:11:00.227Z,8.50
2019-06-07T07:13:29.570Z,8.82
2019-06-07T07:15:58.959Z,9.28
2019-06-07T07:18:29.010Z,6.83
2019-06-07T07:20:59.272Z,9.38
2019-06-07T07:23:29.403Z,5.95
2019-06-07T07:26:00.325Z,6.85
2019-06-07T07:28:29.992Z,7.08
2019-06-07T07:31:00.012Z,8.15
2019-06-07T07:34:20.877Z,7.30
2019-06-07T07:38:31.687Z,5.67
2019-06-07T07:41:13.904Z,7.60
2019-06-07T07:43:32.309Z,8.87
2019-06-07T07:46:03.559Z,4.50
2019-06-07T07:48:32.849Z,4.27
2019-06-07T07:51:03.353Z,5.28
2019-06-07T07:53:48.374Z,4.70
2019-06-07T07:56:04.427Z,7.80
2019-06-07T07:58:33.923Z,4.70
2019-06-07T08:01:10.135Z,6.62
2019-06-07T08:03:34.444Z,5.10
2019-06-07T08:06:03.901Z,6.67
2019-06-07T08:08:33.665Z,4.87
2019-06-07T08:11:03.750Z,5.08
2019-06-07T08:13:33.853Z,6.25
2019-06-07T08:16:10.628Z,5.10
2019-06-07T08:21:21.376Z,5.70
2019-06-07T08:23:35.264Z,3.87
2019-06-07T08:26:04.939Z,6.63
2019-06-07T08:28:35.289Z,3.90
2019-06-07T08:31:07.235Z,3.77
2019-06-07T08:36:19.454Z,3.77
2019-06-07T08:38:47.583Z,4.42
2019-06-07T08:41:11.798Z,4.90
2019-06-07T08:43:39.072Z,4.23
2019-06-07T08:46:08.480Z,3.70
2019-06-07T08:48:37.853Z,6.50
2019-06-07T08:51:08.461Z,5.03
2019-06-07T08:53:38.233Z,4.13
2019-06-07T08:56:11.055Z,3.73
2019-06-07T09:01:09.092Z,5.83
2019-06-07T09:03:38.841Z,5.17
2019-06-07T09:06:53.890Z,4.33
2019-06-07T09:08:39.935Z,5.33
2019-06-07T09:11:11.086Z,4.08
2019-06-07T09:16:10.290Z,4.10
2019-06-07T09:18:44.477Z,6.03
2019-06-07T09:21:11.785Z,4.97
2019-06-07T09:23:41.137Z,6.90
2019-06-07T09:26:18.047Z,5.30
2019-06-07T09:28:42.423Z,3.33
2019-06-07T09:31:12.684Z,4.62
2019-06-07T09:33:42.372Z,4.50
2019-06-07T09:36:13.160Z,5.12
2019-06-07T09:38:45.103Z,4.17
2019-06-07T09:41:14.749Z,5.27
2019-06-07T09:44:01.898Z,3.75
2019-06-07T09:46:16.376Z,6.37
2019-06-07T09:49:14.243Z,8.63
2019-06-07T09:51:20.240Z,6.00
2019-06-07T09:56:16.821Z,4.05
2019-06-07T09:58:52.566Z,4.47
2019-06-07T10:01:17.377Z,6.80
2019-06-07T10:03:46.756Z,5.25
2019-06-07T10:06:16.200Z,6.33
2019-06-07T10:11:16.738Z,4.60
2019-06-07T10:13:46.242Z,3.98
2019-06-07T10:16:15.624Z,5.70
2019-06-07T10:18:45.589Z,4.43
2019-06-07T10:21:15.845Z,5.33
2019-06-07T10:23:45.989Z,7.25
2019-06-07T10:26:16.408Z,4.83
2019-06-07T10:28:46.777Z,4.97
2019-06-07T10:31:16.636Z,3.70
2019-06-07T10:33:46.879Z,9.50
2019-06-07T10:36:17.070Z,4.00
2019-06-07T10:38:47.535Z,5.90
2019-06-07T10:41:17.596Z,4.56
2019-06-07T10:43:47.799Z,7.54
2019-06-07T10:46:18.064Z,5.58
2019-06-07T10:48:48.310Z,7.08
2019-06-07T10:51:18.504Z,4.98
2019-06-07T10:53:48.792Z,7.44
2019-06-07T10:56:19.013Z,5.74
2019-06-07T10:58:49.395Z,5.60
2019-06-07T11:01:19.509Z,7.97
2019-06-07T11:03:49.820Z,11.02
2019-06-07T11:06:20.020Z,5.84
2019-06-07T11:08:51.289Z,4.60
2019-06-07T11:11:20.673Z,5.33
2019-06-07T11:13:52.585Z,7.72
2019-06-07T11:16:22.069Z,8.38
2019-06-07T11:18:51.549Z,5.33
2019-06-07T11:21:21.565Z,5.95
2019-06-07T11:23:51.629Z,7.40
2019-06-07T11:26:21.737Z,5.70
2019-06-07T11:28:52.018Z,5.98
2019-06-07T11:31:22.146Z,10.65
2019-06-07T11:33:52.642Z,11.57
2019-06-07T11:36:22.443Z,7.28
2019-06-07T11:38:52.713Z,5.78
2019-06-07T11:41:22.927Z,5.53
2019-06-07T11:43:53.173Z,4.67
2019-06-07T11:46:23.356Z,6.26
2019-06-07T11:48:53.757Z,6.20
2019-06-07T11:51:23.957Z,5.53
2019-06-07T11:53:54.288Z,10.70
2019-06-07T11:56:24.386Z,4.32
2019-06-07T11:58:54.985Z,7.05
2019-06-07T12:01:24.953Z,6.15
2019-06-07T12:03:58.263Z,6.17
2019-06-07T12:06:26.319Z,5.30
2019-06-07T12:08:55.693Z,4.45
2019-06-07T12:11:26.211Z,5.20
2019-06-07T12:13:56.262Z,7.42
2019-06-07T12:16:26.743Z,7.92
2019-06-07T12:18:56.699Z,5.50
2019-06-07T12:21:26.888Z,7.18
2019-06-07T12:23:57.233Z,6.30
2019-06-07T12:26:26.921Z,7.05
2019-06-07T12:28:56.313Z,8.00
2019-06-07T12:31:25.777Z,11.07
2019-06-07T12:33:55.160Z,4.10
2019-06-07T12:36:24.625Z,5.03
2019-06-07T12:38:54.050Z,5.95
2019-06-07T12:41:23.436Z,5.60
2019-06-07T12:43:53.176Z,4.97
2019-06-07T12:46:27.966Z,5.62
2019-06-07T12:48:53.663Z,7.53
2019-06-07T12:51:23.484Z,4.75
2019-06-07T12:53:53.851Z,5.43
2019-06-07T12:56:24.232Z,3.80
2019-06-07T12:58:54.680Z,4.62
2019-06-07T13:01:24.876Z,4.35
2019-06-07T13:03:54.452Z,6.03
2019-06-07T13:06:23.791Z,5.87
2019-06-07T13:08:53.228Z,7.33
2019-06-07T13:11:28.190Z,5.53
2019-06-07T13:13:53.687Z,9.67
2019-06-07T13:16:24.248Z,5.22
2019-06-07T13:18:53.694Z,7.05
2019-06-07T13:21:24.500Z,9.58
2019-06-07T13:23:54.154Z,4.93
2019-06-07T13:26:24.925Z,4.87
2019-06-07T13:28:54.392Z,3.93
2019-06-07T13:31:25.125Z,6.87
2019-06-07T13:33:54.683Z,5.53
2019-06-07T13:36:24.447Z,6.70
2019-06-07T13:38:54.036Z,5.97
2019-06-07T13:41:36.553Z,6.30
2019-06-07T13:43:54.498Z,6.12
2019-06-07T13:46:25.176Z,6.20
2019-06-07T13:48:54.863Z,3.97
2019-06-07T13:51:25.192Z,6.83
2019-06-07T13:53:55.328Z,8.80
2019-06-07T13:56:25.931Z,6.65
2019-06-07T13:58:55.467Z,6.90
2019-06-07T14:01:24.843Z,4.83
2019-06-07T14:03:54.253Z,5.33
2019-06-07T14:06:25.147Z,5.08
2019-06-07T14:08:54.636Z,6.90
2019-06-07T14:11:24.021Z,6.23
2019-06-07T14:13:53.394Z,4.45
2019-06-07T14:16:24.279Z,5.45
2019-06-07T14:18:53.739Z,3.87
2019-06-07T14:21:24.505Z,5.83
2019-06-07T14:23:53.971Z,5.33
2019-06-07T14:26:23.619Z,4.03
2019-06-07T14:28:52.992Z,8.28
2019-06-07T14:31:22.391Z,5.20
2019-06-07T14:33:51.864Z,5.97
2019-06-07T14:36:22.622Z,5.83
2019-06-07T14:38:52.160Z,4.10
2019-06-07T14:41:23.108Z,10.23
2019-06-07T14:43:52.593Z,4.57
2019-06-07T14:46:21.988Z,4.70
2019-06-07T14:48:51.384Z,7.42
2019-06-07T14:51:20.775Z,5.05
2019-06-07T14:53:50.166Z,5.30
2019-06-07T14:56:19.683Z,5.00
2019-06-07T14:58:49.082Z,5.42
2019-06-07T15:01:18.464Z,2.80
2019-06-07T15:03:47.846Z,6.05
2019-06-07T15:06:18.218Z,4.10
2019-06-07T15:08:51.237Z,5.27
2019-06-07T15:11:18.656Z,4.67
2019-06-07T15:13:48.024Z,5.33
2019-06-07T15:16:17.452Z,6.25
2019-06-07T15:18:48.852Z,5.87
2019-06-07T15:21:18.237Z,5.15
2019-06-07T15:23:47.616Z,3.13
2019-06-07T15:26:17.005Z,5.73
2019-06-07T15:28:46.383Z,3.55
2019-06-07T15:31:15.756Z,4.77
2019-06-07T15:33:45.144Z,5.08
2019-06-07T15:36:15.119Z,4.75
2019-06-07T15:38:45.359Z,5.92
2019-06-07T15:41:15.597Z,4.25
2019-06-07T15:43:45.793Z,4.53
2019-06-07T15:46:16.096Z,5.10
2019-06-07T15:48:46.307Z,5.92
2019-06-07T15:51:16.643Z,6.20
2019-06-07T15:53:46.787Z,4.42
2019-06-07T15:56:17.267Z,5.20
2019-06-07T15:58:47.216Z,5.75
2019-06-07T16:01:17.584Z,5.92
2019-06-07T16:03:47.611Z,5.90
2019-06-07T16:06:19.671Z,5.62
2019-06-07T16:11:18.327Z,11.30
2019-06-07T16:13:48.659Z,8.00
2019-06-07T16:16:18.951Z,6.55
2019-06-07T16:18:49.169Z,5.85
2019-06-07T16:21:19.544Z,7.35
2019-06-07T16:23:49.689Z,6.07
2019-06-07T16:26:19.893Z,5.12
2019-06-07T16:28:50.195Z,4.25
2019-06-07T16:31:20.419Z,5.75
2019-06-07T16:33:50.624Z,4.85
2019-06-07T16:36:20.948Z,4.10
2019-06-07T16:38:51.230Z,4.70
2019-06-07T16:41:21.449Z,6.55
2019-06-07T16:43:51.648Z,4.55
2019-06-07T16:46:23.256Z,9.25
2019-06-07T16:48:52.634Z,5.75
2019-06-07T16:54:01.050Z,5.92
2019-06-07T16:56:30.498Z,3.80
2019-06-07T16:58:59.962Z,4.87
2019-06-07T17:01:29.357Z,4.60
2019-06-07T17:03:58.747Z,4.93
2019-06-07T17:06:28.212Z,3.70
2019-06-07T17:08:57.589Z,5.17
2019-06-07T17:11:26.989Z,5.05
2019-06-07T17:13:56.368Z,4.95
2019-06-07T17:16:25.792Z,4.22
2019-06-07T17:18:55.172Z,4.57
2019-06-07T17:21:25.121Z,4.47
2019-06-07T17:23:55.472Z,6.10
2019-06-07T17:26:25.569Z,4.48
2019-06-07T17:28:55.783Z,8.88
2019-06-07T17:31:25.972Z,6.70
2019-06-07T17:33:56.043Z,7.42
2019-06-07T17:36:26.331Z,7.70
2019-06-07T17:38:56.445Z,4.75
2019-06-07T17:41:26.758Z,8.16
2019-06-07T17:44:00.291Z,6.50
2019-06-07T17:46:28.026Z,4.58
2019-06-07T17:48:57.422Z,4.70
2019-06-07T17:51:27.708Z,8.18
2019-06-07T17:53:57.682Z,4.06
2019-06-07T17:56:27.790Z,9.26
2019-06-07T17:58:58.152Z,7.60
2019-06-07T18:01:40.666Z,5.72
2019-06-07T18:03:59.274Z,5.17
2019-06-07T18:06:29.580Z,10.55
2019-06-07T18:09:00.203Z,9.68
2019-06-07T18:11:29.645Z,10.23
2019-06-07T18:14:10.012Z,8.88
2019-06-07T18:16:30.543Z,7.08
2019-06-07T18:18:59.931Z,6.35
2019-06-07T18:21:30.272Z,7.54
2019-06-07T18:24:00.227Z,7.15
2019-06-07T18:26:30.654Z,7.10
2019-06-07T18:29:00.803Z,5.80
2019-06-07T18:31:31.103Z,6.16
2019-06-07T18:34:01.492Z,5.05
2019-06-07T18:36:31.604Z,10.35
2019-06-07T18:39:01.753Z,6.90
2019-06-07T18:41:32.751Z,8.60
2019-06-07T18:44:02.250Z,7.85
2019-06-07T18:46:32.888Z,7.46
2019-06-07T18:49:02.663Z,6.35
2019-06-07T18:51:32.919Z,10.90
2019-06-07T18:54:03.167Z,8.40
2019-06-07T18:56:34.011Z,13.72
2019-06-07T18:59:03.764Z,11.20
2019-06-07T19:01:34.002Z,6.56
2019-06-07T19:04:04.293Z,6.58
2019-06-07T19:06:34.477Z,7.42
2019-06-07T19:09:06.056Z,8.86
2019-06-07T19:11:35.502Z,9.03
2019-06-07T19:14:06.913Z,9.28
2019-06-07T19:16:36.288Z,7.23
2019-06-07T19:19:05.798Z,8.48
2019-06-07T19:21:36.009Z,6.18
2019-06-07T19:24:06.165Z,9.05
2019-06-07T19:26:36.535Z,10.53
2019-06-07T19:29:06.732Z,10.26
2019-06-07T19:31:36.932Z,8.92
2019-06-07T19:34:07.168Z,9.75
2019-06-07T19:36:48.258Z,9.73
2019-06-07T19:39:08.728Z,7.53
2019-06-07T19:41:38.115Z,7.53
2019-06-07T19:44:08.194Z,6.42
2019-06-07T19:46:38.445Z,6.70
2019-06-07T19:49:08.604Z,6.46
2019-06-07T19:51:38.940Z,7.02
2019-06-07T19:54:10.150Z,7.80
2019-06-07T19:56:39.552Z,8.27
2019-06-07T19:59:09.677Z,7.70
2019-06-07T20:01:39.968Z,8.44
2019-06-07T20:04:10.194Z,6.96
2019-06-07T20:06:40.359Z,6.45
2019-06-07T20:09:10.375Z,6.30
2019-06-07T20:11:40.573Z,6.20
2019-06-07T20:14:10.818Z,7.22
2019-06-07T20:16:40.589Z,10.40
2019-06-07T20:19:10.760Z,5.28
2019-06-07T20:21:41.120Z,7.38
2019-06-07T20:24:24.730Z,7.33
2019-06-07T20:26:42.078Z,8.70
2019-06-07T20:29:25.600Z,8.65
2019-06-07T20:31:43.194Z,5.85
2019-06-07T20:34:13.619Z,6.45
2019-06-07T20:36:45.840Z,6.80
2019-06-07T20:39:14.102Z,6.47
2019-06-07T20:41:43.733Z,8.30
2019-06-07T20:44:13.828Z,6.28
2019-06-07T20:46:43.834Z,10.55
2019-06-07T20:49:14.050Z,8.60
2019-06-07T20:51:44.321Z,6.70
2019-06-07T20:54:14.825Z,11.57
2019-06-07T20:56:44.770Z,6.35
2019-06-07T20:59:15.011Z,7.87
2019-06-07T21:01:45.315Z,5.58
2019-06-07T21:04:15.418Z,10.03
2019-06-07T21:06:45.548Z,7.12
2019-06-07T21:09:15.644Z,8.80
2019-06-07T21:11:45.926Z,9.10
2019-06-07T21:14:15.954Z,6.18
2019-06-07T21:16:46.328Z,6.52
2019-06-07T21:19:16.559Z,8.38
2019-06-07T21:21:46.785Z,10.17
2019-06-07T21:24:17.045Z,8.30
2019-06-07T21:26:47.356Z,8.08
2019-06-07T21:29:17.533Z,6.53
2019-06-07T21:31:48.052Z,9.73
2019-06-07T21:34:17.954Z,10.47
2019-06-07T21:36:48.418Z,12.20
2019-06-07T21:39:18.401Z,8.98
2019-06-07T21:41:48.698Z,8.28
2019-06-07T21:44:18.867Z,12.33
2019-06-07T21:46:49.185Z,9.40
2019-06-07T21:49:19.361Z,6.97
2019-06-07T21:51:49.709Z,6.72
2019-06-07T21:54:19.822Z,20.03
2019-06-07T21:56:50.281Z,12.62
2019-06-07T21:59:20.367Z,6.53
2019-06-07T22:01:51.076Z,10.04
2019-06-07T22:04:20.899Z,8.30
2019-06-07T22:06:51.972Z,7.55
2019-06-07T22:09:22.216Z,12.26
2019-06-07T22:11:51.664Z,7.10
2019-06-07T22:14:21.894Z,4.60
2019-06-07T22:16:52.168Z,7.58
2019-06-07T22:19:22.424Z,7.20
2019-06-07T22:22:02.099Z,6.37
2019-06-07T22:24:23.884Z,7.37
2019-06-07T22:26:53.278Z,13.32
2019-06-07T22:29:23.407Z,7.85
2019-06-07T22:31:53.763Z,7.54
2019-06-07T22:34:23.976Z,11.27
2019-06-07T22:36:54.249Z,9.73
2019-06-07T22:39:24.509Z,10.98
2019-06-07T22:41:54.722Z,9.00
2019-06-07T22:44:24.894Z,6.97
2019-06-07T22:46:55.261Z,9.18
2019-06-07T22:49:25.490Z,7.53
2019-06-07T22:52:08.224Z,8.55
2019-06-07T22:54:26.819Z,6.33
2019-06-07T22:57:00.567Z,7.47
2019-06-07T22:59:30.971Z,13.60
2019-06-07T23:02:00.349Z,7.87
2019-06-07T23:04:29.835Z,14.00
2019-06-07T23:06:59.216Z,10.48
2019-06-07T23:09:28.605Z,8.75
2019-06-07T23:11:57.982Z,8.40
2019-06-07T23:14:27.970Z,8.25
2019-06-07T23:16:58.273Z,9.60
2019-06-07T23:19:28.431Z,15.13
2019-06-07T23:21:58.774Z,17.82
2019-06-07T23:24:29.098Z,10.90
2019-06-07T23:26:59.328Z,10.43
2019-06-07T23:29:29.570Z,10.28
2019-06-07T23:31:59.911Z,11.90
2019-06-07T23:34:29.992Z,6.83
2019-06-07T23:37:00.424Z,7.88
2019-06-07T23:39:30.585Z,8.13
2019-06-07T23:42:00.717Z,8.83
2019-06-07T23:44:30.814Z,8.25
2019-06-07T23:47:10.821Z,10.32
2019-06-07T23:49:32.671Z,8.73
2019-06-07T23:52:02.070Z,10.28
2019-06-07T23:54:31.733Z,15.83
2019-06-07T23:57:02.123Z,7.94
2019-06-07T23:59:32.390Z,13.33
